Map

Track Data

SID SEASON NUMBER BASIN SUBBASIN NAME ISO_TIME NATURE LAT LON WMO_WIND WMO_PRES WMO_AGENCY TRACK_TYPE DIST2LAND LANDFALL IFLAG USA_AGENCY USA_ATCF_ID USA_LAT USA_LON USA_RECORD USA_STATUS USA_WIND USA_PRES USA_SSHS USA_R34_NE USA_R34_SE USA_R34_SW USA_R34_NW USA_R50_NE USA_R50_SE USA_R50_SW USA_R50_NW USA_R64_NE USA_R64_SE USA_R64_SW USA_R64_NW USA_POCI USA_ROCI USA_RMW USA_EYE TOKYO_LAT TOKYO_LON TOKYO_GRADE TOKYO_WIND TOKYO_PRES TOKYO_R50_DIR TOKYO_R50_LONG TOKYO_R50_SHORT TOKYO_R30_DIR TOKYO_R30_LONG TOKYO_R30_SHORT TOKYO_LAND CMA_LAT CMA_LON CMA_CAT CMA_WIND CMA_PRES HKO_LAT HKO_LON HKO_CAT HKO_WIND HKO_PRES NEWDELHI_LAT NEWDELHI_LON NEWDELHI_GRADE NEWDELHI_WIND NEWDELHI_PRES NEWDELHI_CI NEWDELHI_DP NEWDELHI_POCI REUNION_LAT REUNION_LON REUNION_TYPE REUNION_WIND REUNION_PRES REUNION_TNUM REUNION_CI REUNION_RMW REUNION_R34_NE REUNION_R34_SE REUNION_R34_SW REUNION_R34_NW REUNION_R50_NE REUNION_R50_SE REUNION_R50_SW REUNION_R50_NW REUNION_R64_NE REUNION_R64_SE REUNION_R64_SW REUNION_R64_NW BOM_LAT BOM_LON BOM_TYPE BOM_WIND BOM_PRES BOM_TNUM BOM_CI BOM_RMW BOM_R34_NE BOM_R34_SE BOM_R34_SW BOM_R34_NW BOM_R50_NE BOM_R50_SE BOM_R50_SW BOM_R50_NW BOM_R64_NE BOM_R64_SE BOM_R64_SW BOM_R64_NW BOM_ROCI BOM_POCI BOM_EYE BOM_POS_METHOD BOM_PRES_METHOD NADI_LAT NADI_LON NADI_CAT NADI_WIND NADI_PRES WELLINGTON_LAT WELLINGTON_LON WELLINGTON_WIND WELLINGTON_PRES DS824_LAT DS824_LON DS824_STAGE DS824_WIND DS824_PRES TD9636_LAT TD9636_LON TD9636_STAGE TD9636_WIND TD9636_PRES TD9635_LAT TD9635_LON TD9635_WIND TD9635_PRES TD9635_ROCI NEUMANN_LAT NEUMANN_LON NEUMANN_CLASS NEUMANN_WIND NEUMANN_PRES MLC_LAT MLC_LON MLC_CLASS MLC_WIND MLC_PRES USA_GUST BOM_GUST BOM_GUST_PER REUNION_GUST REUNION_GUST_PER USA_SEAHGT USA_SEARAD_NE USA_SEARAD_SE USA_SEARAD_SW USA_SEARAD_NW STORM_SPEED STORM_DIR
1958190N20088 1958 49 NI BB NOT_NAMED 1958-07-08 18:00:00 TS 19.7000 88.4000 main 183 183 O________O____ jtwc_io IO041958 19.7000 88.4000 -1 19.7000 88.4000 TC 2 44
1958190N20088 1958 49 NI BB NOT_NAMED 1958-07-08 21:00:00 TS 19.7749 88.4699 main 186 171 P________P____ IO041958 19.7749 88.4699 -1 19.7749 88.4699 TC 2 8
1958190N20088 1958 49 NI BB NOT_NAMED 1958-07-09 00:00:00 TS 19.9000 88.4000 main 171 132 O________O____ jtwc_io IO041958 19.9000 88.4000 -1 19.9000 88.4000 TC 25 5 314
1958190N20088 1958 49 NI BB NOT_NAMED 1958-07-09 03:00:00 TS 20.1112 88.1023 main 132 80 P________PO___ IO041958 20.1126 88.1026 -1 20.1126 88.1026 TC 25 20.1000 88.1000 1 8 308
1958190N20088 1958 49 NI BB NOT_NAMED 1958-07-09 06:00:00 TS 20.4071 87.7028 main 80 41 O________OP___ jtwc_io IO041958 20.4000 87.7000 -1 20.4000 87.7000 TC 25 20.4354 87.7141 1 10 312
1958190N20088 1958 49 NI BB NOT_NAMED 1958-07-09 09:00:00 TS 20.7489 87.3505 main 41 15 P________PP___ IO041958 20.7424 87.3574 -1 20.7424 87.3574 TC 25 20.7664 87.3319 1 10 316
1958190N20088 1958 49 NI BB NOT_NAMED 1958-07-09 12:00:00 TS 21.0964 86.9862 main 20 0 O________OP___ jtwc_io IO041958 21.1000 87.0000 -1 21.1000 87.0000 TC 25 21.0891 86.9587 1 10 314
1958190N20088 1958 49 NI BB NOT_NAMED 1958-07-09 15:00:00 TS 21.4100 86.6049 main 0 0 P________PO___ IO041958 21.4150 86.6074 -1 21.4150 86.6074 TC 25 21.4000 86.6000 1 9 310
1958190N20088 1958 49 NI BB NOT_NAMED 1958-07-09 18:00:00 TS 21.6988 86.2183 main 0 0 O________OP___ jtwc_io IO041958 21.7000 86.2000 -1 21.7000 86.2000 TC 25 21.6963 86.2549 1 9 308
1958190N20088 1958 49 NI BB NOT_NAMED 1958-07-09 21:00:00 TS 21.9642 85.8368 main 0 0 P________PP___ IO041958 21.9573 85.8073 -1 21.9573 85.8073 TC 25 21.9781 85.8960 1 9 305
1958190N20088 1958 49 NI BB NOT_NAMED 1958-07-10 00:00:00 TS 22.2153 85.4297 main 0 0 O________OP___ jtwc_io IO041958 22.2000 85.4000 -1 22.2000 85.4000 TC 25 22.2459 85.4891 1 9 303
1958190N20088 1958 49 NI BB NOT_NAMED 1958-07-10 03:00:00 TS 22.4663 85.0014 main 0 0 P________PO___ IO041958 22.4495 85.0021 -1 22.4495 85.0021 TC 25 22.5000 85.0000 1 10 299
1958190N20088 1958 49 NI BB NOT_NAMED 1958-07-10 06:00:00 TS 22.7157 84.4728 main 0 0 O________OP___ jtwc_io IO041958 22.7000 84.5000 -1 22.7000 84.5000 TC 25 22.7470 84.4183 1 12 294
1958190N20088 1958 49 NI BB NOT_NAMED 1958-07-10 09:00:00 TS 22.9647 83.7848 main 0 0 P________PP___ IO041958 22.9576 83.8025 -1 22.9576 83.8025 TC 25 22.9790 83.7493 1 14 290
1958190N20088 1958 49 NI BB NOT_NAMED 1958-07-10 12:00:00 TS 23.1988 83.0019 main 0 0 O________OP___ jtwc_io IO041958 23.2000 83.0000 -1 23.2000 83.0000 TC 25 23.1965 83.0056 1 15 287
1958190N20088 1958 49 NI BB NOT_NAMED 1958-07-10 15:00:00 TS 23.4096 82.2148 main 0 0 P________PO___ IO041958 23.4145 82.2222 -1 23.4145 82.2222 TC 25 23.4000 82.2000 1 15 285
1958190N20088 1958 49 NI BB NOT_NAMED 1958-07-10 18:00:00 TS 23.5962 81.3780 main 0 0 O________OP___ jtwc_io IO041958 23.6000 81.4000 -1 23.6000 81.4000 TC 25 23.5906 81.3449 1 16 283
1958190N20088 1958 49 NI BB NOT_NAMED 1958-07-10 21:00:00 TS 23.7634 80.4897 main 0 0 P________PP___ IO041958 23.7587 80.5179 -1 23.7587 80.5179 TC 25 23.7696 80.4520 1 17 281
1958190N20088 1958 49 NI BB NOT_NAMED 1958-07-11 00:00:00 TS 23.9194 79.5665 main 0 0 O________OP___ jtwc_io IO041958 23.9000 79.6000 -1 23.9000 79.6000 TC 25 23.9388 79.5330 1 18 281
1958190N20088 1958 49 NI BB NOT_NAMED 1958-07-11 03:00:00 NR 24.1000 78.6000 main 0 __________O___ IO041958 -1 TC 24.1000 78.6000 1 18 282

About IBTrACS Database

This database is a web-friendly format of International Best Track Archive for Climate Stewardship (IBTrACS), a global best track data archive curated by NOAA dating back to 1842.

Updated: 2021-11-26